createdAt,value
2019-04-05T00:02:24.970Z,17.92
2019-04-05T00:04:54.326Z,17.98
2019-04-05T00:07:24.807Z,19.23
2019-04-05T00:09:56.131Z,19.40
2019-04-05T00:12:25.707Z,22.42
2019-04-05T00:14:55.088Z,20.85
2019-04-05T00:17:24.444Z,20.70
2019-04-05T00:19:55.889Z,18.27
2019-04-05T00:22:30.353Z,17.20
2019-04-05T00:25:04.516Z,19.35
2019-04-05T00:27:50.825Z,17.45
2019-04-05T00:30:22.261Z,20.68
2019-04-05T00:32:52.210Z,19.67
2019-04-05T00:35:22.800Z,17.98
2019-04-05T00:37:52.164Z,19.80
2019-04-05T00:40:21.537Z,22.98
2019-04-05T00:42:50.941Z,17.82
2019-04-05T00:45:27.927Z,19.20
2019-04-05T00:47:51.390Z,17.90
2019-04-05T00:50:20.797Z,19.50
2019-04-05T00:52:50.160Z,21.25
2019-04-05T00:55:19.543Z,19.07
2019-04-05T00:57:49.581Z,21.70
2019-04-05T01:00:19.158Z,19.57
2019-04-05T01:02:48.591Z,20.97
2019-04-05T01:05:18.275Z,19.35
2019-04-05T01:07:47.848Z,22.10
2019-04-05T01:10:17.604Z,18.95
2019-04-05T01:12:48.249Z,21.82
2019-04-05T01:15:17.827Z,20.30
2019-04-05T01:17:50.649Z,19.75
2019-04-05T01:20:21.479Z,20.97
2019-04-05T01:22:52.962Z,20.62
2019-04-05T01:25:23.308Z,20.02
2019-04-05T01:27:52.945Z,22.27
2019-04-05T01:30:22.381Z,22.82
2019-04-05T01:32:51.703Z,20.25
2019-04-05T01:35:21.185Z,21.70
2019-04-05T01:37:51.006Z,19.57
2019-04-05T01:40:20.466Z,19.35
2019-04-05T01:42:49.822Z,20.57
2019-04-05T01:45:19.622Z,20.15
2019-04-05T01:47:50.151Z,21.00
2019-04-05T01:50:19.624Z,24.57
2019-04-05T01:52:49.128Z,18.62
2019-04-05T01:55:18.475Z,23.47
2019-04-05T01:57:47.874Z,22.02
2019-04-05T02:00:17.615Z,22.60
2019-04-05T02:02:47.125Z,20.40
2019-04-05T02:05:16.763Z,28.25
2019-04-05T02:07:46.250Z,23.62
2019-04-05T02:10:16.456Z,22.20
2019-04-05T02:12:45.810Z,22.55
2019-04-05T02:15:27.797Z,22.50
2019-04-05T02:17:57.703Z,21.75
2019-04-05T02:20:27.317Z,23.25
2019-04-05T02:22:56.782Z,19.23
2019-04-05T02:25:26.304Z,20.52
2019-04-05T02:27:55.657Z,21.15
2019-04-05T02:30:25.391Z,19.52
2019-04-05T02:32:54.835Z,19.77
2019-04-05T02:35:24.444Z,19.32
2019-04-05T02:37:53.984Z,23.22
2019-04-05T02:40:28.325Z,20.95
2019-04-05T02:42:59.695Z,24.37
2019-04-05T02:45:32.255Z,22.60
2019-04-05T02:48:04.760Z,20.50
2019-04-05T02:50:36.956Z,23.67
2019-04-05T02:53:09.365Z,20.70
2019-04-05T02:55:41.135Z,21.73
2019-04-05T02:58:13.469Z,25.37
2019-04-05T03:00:44.096Z,22.98
2019-04-05T03:03:14.280Z,24.10
2019-04-05T03:05:46.216Z,23.35
2019-04-05T03:08:16.433Z,19.02
2019-04-05T03:11:03.722Z,21.87
2019-04-05T03:13:36.211Z,22.77
2019-04-05T03:16:08.707Z,25.05
2019-04-05T03:18:41.580Z,21.73
2019-04-05T03:21:12.132Z,19.92
2019-04-05T03:23:44.009Z,22.10
2019-04-05T03:26:16.455Z,21.55
2019-04-05T03:28:48.728Z,23.67
2019-04-05T03:31:24.526Z,23.77
2019-04-05T03:33:50.379Z,24.27
2019-04-05T03:36:20.062Z,22.05
2019-04-05T03:38:49.503Z,23.57
2019-04-05T03:41:19.066Z,25.52
2019-04-05T03:43:49.863Z,21.85
2019-04-05T03:46:20.006Z,23.35
2019-04-05T03:48:49.901Z,23.30
2019-04-05T03:51:19.833Z,25.65
2019-04-05T03:53:49.322Z,24.12
2019-04-05T03:56:19.416Z,23.18
2019-04-05T03:58:48.878Z,24.47
2019-04-05T04:01:18.293Z,24.95
2019-04-05T04:03:47.837Z,25.17
2019-04-05T04:06:17.447Z,25.62
2019-04-05T04:08:47.163Z,23.52
2019-04-05T04:11:16.684Z,24.45
2019-04-05T04:13:46.084Z,25.25
2019-04-05T04:16:15.655Z,23.75
2019-04-05T04:18:45.434Z,24.00
2019-04-05T04:21:20.597Z,22.98
2019-04-05T04:23:50.001Z,23.25
2019-04-05T04:26:20.718Z,24.60
2019-04-05T04:28:50.616Z,25.32
2019-04-05T04:31:20.135Z,29.18
2019-04-05T04:33:49.567Z,30.05
2019-04-05T04:36:25.780Z,24.00
2019-04-05T04:38:55.352Z,26.07
2019-04-05T04:41:24.882Z,25.00
2019-04-05T04:43:55.196Z,24.60
2019-04-05T04:46:25.874Z,25.50
2019-04-05T04:48:55.349Z,26.23
2019-04-05T04:51:24.762Z,24.07
2019-04-05T04:53:54.401Z,29.30
2019-04-05T04:56:24.345Z,31.50
2019-04-05T04:58:53.908Z,26.60
2019-04-05T05:01:23.338Z,25.45
2019-04-05T05:03:52.756Z,26.95
2019-04-05T05:06:22.785Z,26.97
2019-04-05T05:08:52.322Z,24.75
2019-04-05T05:11:21.885Z,31.30
2019-04-05T05:13:51.303Z,28.73
2019-04-05T05:16:20.767Z,25.95
2019-04-05T05:18:50.245Z,26.30
2019-04-05T05:21:20.035Z,22.62
2019-04-05T05:23:49.440Z,27.02
2019-04-05T05:26:20.009Z,28.35
2019-04-05T05:28:49.551Z,25.92
2019-04-05T05:31:19.465Z,30.80
2019-04-05T05:33:49.106Z,28.98
2019-04-05T05:36:19.052Z,28.52
2019-04-05T05:38:48.536Z,33.10
2019-04-05T05:41:17.979Z,26.37
2019-04-05T05:43:47.582Z,27.37
2019-04-05T05:46:16.908Z,30.45
2019-04-05T05:48:47.097Z,28.17
2019-04-05T05:51:16.603Z,25.82
2019-04-05T05:53:46.055Z,25.52
2019-04-05T05:56:16.973Z,28.55
2019-04-05T05:58:46.665Z,28.23
2019-04-05T06:01:16.171Z,26.75
2019-04-05T06:03:45.575Z,26.10
2019-04-05T06:06:16.974Z,26.07
2019-04-05T06:08:48.082Z,25.55
2019-04-05T06:11:18.873Z,24.77
2019-04-05T06:13:48.242Z,27.58
2019-04-05T06:16:17.681Z,26.77
2019-04-05T06:18:48.554Z,30.37
2019-04-05T06:21:18.475Z,28.77
2019-04-05T06:23:47.928Z,31.35
2019-04-05T06:26:17.327Z,34.08
2019-04-05T06:28:47.107Z,28.98
2019-04-05T06:31:16.599Z,28.67
2019-04-05T06:33:45.972Z,25.30
2019-04-05T06:36:15.358Z,31.33
2019-04-05T06:38:44.786Z,33.45
2019-04-05T06:41:14.212Z,31.82
2019-04-05T06:43:43.574Z,35.80
2019-04-05T06:46:13.006Z,33.45
2019-04-05T06:48:42.693Z,29.20
2019-04-05T06:51:13.775Z,36.75
2019-04-05T06:53:43.170Z,35.90
2019-04-05T06:56:12.730Z,39.98
2019-04-05T06:58:42.150Z,44.50
2019-04-05T07:01:11.514Z,46.18
2019-04-05T07:03:41.052Z,44.08
2019-04-05T07:06:10.485Z,50.12
2019-04-05T07:08:52.818Z,46.53
2019-04-05T07:11:10.990Z,52.48
2019-04-05T07:13:40.370Z,50.12
2019-04-05T07:16:11.122Z,55.30
2019-04-05T07:18:40.879Z,80.00
2019-04-05T07:21:10.287Z,64.58
2019-04-05T07:23:41.067Z,56.37
2019-04-05T07:26:10.431Z,59.13
2019-04-05T07:28:39.776Z,59.03
2019-04-05T07:31:09.227Z,63.52
2019-04-05T07:33:38.620Z,62.65
2019-04-05T07:36:08.025Z,63.70
2019-04-05T07:38:37.390Z,64.25
2019-04-05T07:41:06.793Z,59.67
2019-04-05T07:43:36.156Z,62.38
2019-04-05T07:46:05.504Z,58.02
2019-04-05T07:48:44.232Z,63.08
2019-04-05T07:51:06.530Z,67.53
2019-04-05T07:53:36.788Z,70.05
2019-04-05T07:56:13.694Z,67.78
2019-04-05T07:58:47.582Z,71.72
2019-04-05T08:01:17.244Z,68.00
2019-04-05T08:03:47.816Z,64.92
2019-04-05T08:06:17.246Z,62.67
2019-04-05T08:08:58.632Z,61.60
2019-04-05T08:11:28.864Z,68.57
2019-04-05T08:14:00.339Z,64.45
2019-04-05T08:16:30.977Z,66.80
2019-04-05T08:19:00.310Z,64.90
2019-04-05T08:21:29.682Z,69.95
2019-04-05T08:23:59.124Z,74.17
2019-04-05T08:26:29.261Z,69.30
2019-04-05T08:28:58.685Z,73.42
2019-04-05T08:31:28.040Z,71.90
2019-04-05T08:33:58.386Z,72.20
2019-04-05T08:36:27.842Z,77.32
2019-04-05T08:38:57.534Z,74.92
2019-04-05T08:41:26.918Z,74.05
2019-04-05T08:43:56.920Z,73.37
2019-04-05T08:46:27.731Z,73.47
2019-04-05T08:49:10.004Z,75.45
2019-04-05T08:51:30.747Z,70.42
2019-04-05T08:54:00.148Z,68.85
2019-04-05T08:56:29.518Z,75.52
2019-04-05T08:58:58.930Z,71.62
2019-04-05T09:01:28.370Z,73.90
2019-04-05T09:04:02.221Z,76.30
2019-04-05T09:06:31.616Z,74.67
2019-04-05T09:09:00.981Z,74.53
2019-04-05T09:11:32.216Z,77.03
2019-04-05T09:14:01.641Z,79.20
2019-04-05T09:16:31.078Z,77.22
2019-04-05T09:19:00.483Z,87.97
2019-04-05T09:21:29.961Z,85.05
2019-04-05T09:23:59.589Z,89.25
2019-04-05T09:26:29.059Z,88.10
2019-04-05T09:28:58.476Z,88.60
2019-04-05T09:31:27.881Z,88.22
2019-04-05T09:33:57.776Z,96.60
2019-04-05T09:36:27.140Z,93.50
2019-04-05T09:38:56.519Z,96.22
2019-04-05T09:41:25.966Z,94.87
2019-04-05T09:43:55.312Z,98.30
2019-04-05T09:46:24.690Z,102.95
2019-04-05T09:48:54.131Z,98.92
2019-04-05T09:51:23.516Z,98.65
2019-04-05T09:53:52.942Z,104.90
2019-04-05T09:56:22.349Z,99.55
2019-04-05T09:58:51.831Z,100.45
2019-04-05T10:01:21.288Z,101.18
2019-04-05T10:04:08.811Z,104.23
2019-04-05T10:06:39.938Z,106.07
2019-04-05T10:09:10.269Z,101.92
2019-04-05T10:11:42.878Z,104.85
2019-04-05T10:14:12.315Z,104.47
2019-04-05T10:16:41.769Z,107.52
2019-04-05T10:19:11.184Z,105.47
2019-04-05T10:21:40.538Z,105.43
2019-04-05T10:24:09.942Z,109.72
2019-04-05T10:26:39.349Z,104.70
2019-04-05T10:29:08.720Z,113.90
2019-04-05T10:31:38.138Z,106.70
2019-04-05T10:34:07.573Z,105.37
2019-04-05T10:36:37.021Z,95.05
2019-04-05T10:39:08.912Z,98.40
2019-04-05T10:41:38.263Z,99.10
2019-04-05T10:44:09.311Z,104.75
2019-04-05T10:46:38.873Z,100.22
2019-04-05T10:49:08.345Z,98.17
2019-04-05T10:51:37.671Z,91.47
2019-04-05T10:54:09.431Z,97.95
2019-04-05T10:56:38.089Z,98.62
2019-04-05T10:59:08.005Z,94.45
2019-04-05T11:01:37.437Z,105.40
2019-04-05T11:04:06.817Z,96.02
2019-04-05T11:06:36.188Z,98.40
2019-04-05T11:09:07.449Z,98.55
2019-04-05T11:11:36.892Z,105.12
2019-04-05T11:14:13.643Z,111.57
2019-04-05T11:16:38.392Z,108.20
2019-04-05T11:19:09.379Z,113.92
2019-04-05T11:21:39.483Z,114.97
2019-04-05T11:24:08.897Z,110.28
2019-04-05T11:26:39.251Z,106.70
2019-04-05T11:29:08.678Z,104.47
2019-04-05T11:31:38.099Z,97.57
2019-04-05T11:34:08.024Z,88.40
2019-04-05T11:36:38.024Z,89.10
2019-04-05T11:39:09.054Z,94.30
2019-04-05T11:41:40.011Z,86.60
2019-04-05T11:44:09.367Z,85.45
2019-04-05T11:46:39.215Z,84.58
2019-04-05T11:49:08.567Z,82.72
2019-04-05T11:51:37.933Z,72.42
2019-04-05T11:54:07.365Z,64.65
2019-04-05T11:56:37.182Z,64.82
2019-04-05T11:59:08.374Z,63.20
2019-04-05T12:01:39.353Z,63.38
2019-04-05T12:04:08.804Z,65.65
2019-04-05T12:06:38.180Z,61.73
2019-04-05T12:09:08.453Z,61.75
2019-04-05T12:11:37.892Z,66.40
2019-04-05T12:14:07.355Z,65.75
2019-04-05T12:16:36.738Z,63.90
2019-04-05T12:19:07.189Z,63.52
2019-04-05T12:21:36.640Z,64.67
2019-04-05T12:24:06.044Z,63.68
2019-04-05T12:26:35.425Z,62.08
2019-04-05T12:29:04.868Z,65.17
2019-04-05T12:31:34.307Z,63.45
2019-04-05T12:34:03.666Z,59.83
2019-04-05T12:36:33.006Z,61.92
2019-04-05T12:39:04.749Z,61.70
2019-04-05T12:41:33.447Z,63.73
2019-04-05T12:44:02.859Z,58.50
2019-04-05T12:46:32.222Z,63.17
2019-04-05T12:49:01.598Z,62.38
2019-04-05T12:51:30.960Z,83.35
2019-04-05T12:54:03.070Z,60.60
2019-04-05T12:56:33.411Z,63.20
2019-04-05T12:59:02.902Z,63.38
2019-04-05T13:01:32.878Z,57.78
2019-04-05T13:04:02.318Z,60.75
2019-04-05T13:06:31.782Z,59.20
2019-04-05T13:09:01.221Z,59.55
2019-04-05T13:11:32.239Z,66.10
2019-04-05T13:14:01.639Z,60.12
2019-04-05T13:16:31.069Z,62.10
2019-04-05T13:19:00.978Z,60.20
2019-04-05T13:21:32.943Z,58.52
2019-04-05T13:24:04.244Z,59.42
2019-04-05T13:26:33.210Z,59.85
2019-04-05T13:29:02.611Z,57.17
2019-04-05T13:31:31.971Z,62.65
2019-04-05T13:34:01.341Z,62.58
2019-04-05T13:36:30.763Z,62.58
2019-04-05T13:39:00.619Z,60.88
2019-04-05T13:41:32.418Z,61.65
2019-04-05T13:44:02.299Z,57.65
2019-04-05T13:46:32.026Z,60.00
2019-04-05T13:49:01.570Z,61.02
2019-04-05T13:51:32.072Z,60.08
2019-04-05T13:54:02.748Z,59.75
2019-04-05T13:56:32.127Z,61.48
2019-04-05T13:59:01.524Z,63.45
2019-04-05T14:01:30.876Z,59.80
2019-04-05T14:04:00.499Z,58.68
2019-04-05T14:06:29.872Z,56.88
2019-04-05T14:08:59.281Z,57.50
2019-04-05T14:11:29.869Z,60.17
2019-04-05T14:13:59.333Z,58.50
2019-04-05T14:16:28.795Z,57.50
2019-04-05T14:19:05.998Z,57.35
2019-04-05T14:21:47.573Z,57.23
2019-04-05T14:24:25.528Z,55.35
2019-04-05T14:27:13.810Z,57.98
2019-04-05T14:30:05.860Z,58.20
2019-04-05T14:32:53.719Z,59.18
2019-04-05T14:35:29.227Z,56.60
2019-04-05T14:38:13.389Z,57.88
2019-04-05T14:40:53.419Z,59.20
2019-04-05T14:43:44.631Z,62.70
2019-04-05T14:46:28.398Z,58.40
2019-04-05T14:49:04.959Z,60.48
2019-04-05T14:51:53.599Z,55.12
2019-04-05T14:54:27.269Z,57.90
2019-04-05T14:57:08.771Z,71.35
2019-04-05T14:59:46.764Z,58.85
2019-04-05T15:02:28.993Z,60.83
2019-04-05T15:05:09.334Z,59.25
2019-04-05T15:07:51.175Z,59.25
2019-04-05T15:10:31.228Z,61.90
2019-04-05T15:13:13.151Z,56.83
2019-04-05T15:15:51.085Z,58.52
2019-04-05T15:18:32.502Z,59.03
2019-04-05T15:21:12.566Z,63.65
2019-04-05T15:23:48.499Z,59.25
2019-04-05T15:26:25.683Z,62.53
2019-04-05T15:29:06.072Z,61.92
2019-04-05T15:31:46.017Z,61.98
2019-04-05T15:34:28.440Z,61.90
2019-04-05T15:37:05.624Z,58.80
2019-04-05T15:39:46.896Z,61.37
2019-04-05T15:42:23.905Z,60.78
2019-04-05T15:45:07.096Z,65.83
2019-04-05T15:47:52.481Z,60.58
2019-04-05T15:50:29.494Z,62.08
2019-04-05T15:53:11.930Z,62.53
2019-04-05T15:55:49.590Z,64.12
2019-04-05T15:58:26.067Z,60.70
2019-04-05T16:01:07.116Z,64.35
2019-04-05T16:03:47.123Z,62.67
2019-04-05T16:06:26.667Z,63.80
2019-04-05T16:09:02.664Z,65.50
2019-04-05T16:11:35.726Z,65.42
2019-04-05T16:14:13.943Z,64.22
2019-04-05T16:16:55.227Z,62.33
2019-04-05T16:19:32.479Z,68.78
2019-04-05T16:22:11.854Z,68.50
2019-04-05T16:24:45.025Z,64.60
2019-04-05T16:27:22.046Z,60.98
2019-04-05T16:30:01.509Z,64.75
2019-04-05T16:32:39.362Z,67.27
2019-04-05T16:35:18.267Z,65.97
2019-04-05T16:38:01.599Z,62.45
2019-04-05T16:40:41.394Z,64.15
2019-04-05T16:43:21.627Z,65.83
2019-04-05T16:45:59.831Z,64.67
2019-04-05T16:48:41.444Z,66.30
2019-04-05T16:51:19.490Z,63.50
2019-04-05T16:54:03.381Z,64.45
2019-04-05T16:56:39.744Z,66.72
2019-04-05T16:59:23.927Z,69.32
2019-04-05T17:02:01.310Z,73.10
2019-04-05T17:04:44.739Z,66.20
2019-04-05T17:07:23.172Z,67.53
2019-04-05T17:10:02.803Z,66.40
2019-04-05T17:12:39.579Z,69.10
2019-04-05T17:15:20.752Z,70.50
2019-04-05T17:18:02.498Z,67.37
2019-04-05T17:20:38.812Z,67.35
2019-04-05T17:23:23.312Z,68.45
2019-04-05T17:26:00.023Z,66.77
2019-04-05T17:28:40.444Z,72.32
2019-04-05T17:31:21.031Z,71.85
2019-04-05T17:33:59.700Z,67.17
2019-04-05T17:36:37.371Z,71.50
2019-04-05T17:39:19.529Z,67.03
2019-04-05T17:41:59.190Z,67.12
2019-04-05T17:44:39.912Z,70.97
2019-04-05T17:47:25.004Z,68.05
2019-04-05T17:50:05.530Z,68.65
2019-04-05T17:52:44.373Z,74.35
2019-04-05T17:55:23.219Z,66.82
2019-04-05T17:58:06.290Z,70.42
2019-04-05T18:00:47.412Z,65.70
2019-04-05T18:03:25.579Z,67.50
2019-04-05T18:05:58.120Z,72.17
2019-04-05T18:08:37.508Z,73.10
2019-04-05T18:11:09.772Z,66.95
2019-04-05T18:13:42.239Z,74.03
2019-04-05T18:16:18.638Z,69.87
2019-04-05T18:18:55.147Z,73.52
2019-04-05T18:21:35.401Z,73.70
2019-04-05T18:24:05.555Z,68.25
2019-04-05T18:26:37.245Z,69.85
2019-04-05T18:29:09.068Z,70.30
2019-04-05T18:31:38.523Z,66.80
2019-04-05T18:34:09.157Z,69.77
2019-04-05T18:36:38.607Z,72.50
2019-04-05T18:39:08.900Z,70.32
2019-04-05T18:41:38.580Z,72.58
2019-04-05T18:44:08.809Z,72.67
2019-04-05T18:46:38.575Z,74.40
2019-04-05T18:49:08.279Z,69.75
2019-04-05T18:51:47.299Z,73.35
2019-04-05T18:54:17.433Z,72.53
2019-04-05T18:56:52.346Z,72.65
2019-04-05T18:59:23.802Z,72.12
2019-04-05T19:02:02.656Z,70.42
2019-04-05T19:04:37.299Z,73.22
2019-04-05T19:07:09.640Z,69.82
2019-04-05T19:09:45.819Z,68.78
2019-04-05T19:12:20.266Z,71.40
2019-04-05T19:15:03.280Z,73.28
2019-04-05T19:17:36.721Z,68.45
2019-04-05T19:20:09.932Z,70.17
2019-04-05T19:22:57.254Z,70.95
2019-04-05T19:25:29.639Z,71.35
2019-04-05T19:28:10.317Z,69.30
2019-04-05T19:49:07.762Z,72.12
2019-04-05T19:51:51.017Z,70.60
2019-04-05T19:54:22.449Z,71.47
2019-04-05T19:56:55.688Z,73.92
2019-04-05T19:59:35.026Z,74.47
2019-04-05T20:02:05.497Z,69.90
2019-04-05T20:04:35.743Z,75.20
2019-04-05T20:07:17.977Z,72.03
2019-04-05T20:09:59.848Z,76.42
2019-04-05T20:12:35.367Z,73.95
2019-04-05T20:15:09.304Z,70.35
2019-04-05T20:17:41.852Z,71.00
2019-04-05T20:20:17.623Z,68.47
2019-04-05T20:22:52.135Z,73.85
2019-04-05T20:25:27.753Z,75.75
2019-04-05T20:27:59.426Z,76.75
2019-04-05T20:30:32.322Z,73.05
2019-04-05T20:33:07.297Z,70.55
2019-04-05T20:35:48.950Z,72.55
2019-04-05T20:38:29.370Z,73.07
2019-04-05T20:41:09.793Z,72.22
2019-04-05T20:43:43.664Z,70.05
2019-04-05T20:46:21.313Z,69.40
2019-04-05T20:49:01.591Z,73.83
2019-04-05T20:51:42.947Z,68.33
2019-04-05T20:54:25.495Z,73.45
2019-04-05T20:57:08.340Z,74.05
2019-04-05T20:59:47.597Z,69.27
2019-04-05T21:02:31.521Z,71.50
2019-04-05T21:05:06.863Z,69.92
2019-04-05T21:07:47.732Z,69.05
2019-04-05T21:10:26.674Z,74.47
2019-04-05T21:13:03.234Z,72.08
2019-04-05T21:18:27.190Z,72.95
2019-04-05T21:21:07.804Z,71.70
2019-04-05T21:23:43.038Z,67.62
2019-04-05T21:26:17.702Z,75.40
2019-04-05T21:31:31.546Z,70.37
2019-04-05T21:36:48.478Z,72.10
2019-04-05T21:39:33.033Z,75.35
2019-04-05T21:42:16.840Z,69.07
2019-04-05T21:45:00.383Z,70.37
2019-04-05T21:47:46.948Z,71.07
2019-04-05T21:50:33.855Z,75.08
2019-04-05T21:53:17.915Z,69.40
2019-04-05T21:56:03.754Z,71.00
2019-04-05T22:01:30.282Z,72.70
2019-04-05T22:06:51.774Z,68.30
2019-04-05T22:09:44.576Z,72.15
2019-04-05T22:12:32.665Z,72.40
2019-04-05T22:15:14.542Z,69.95
2019-04-05T22:17:56.531Z,70.20
2019-04-05T22:20:38.946Z,71.70
2019-04-05T22:23:21.024Z,72.20
2019-04-05T22:26:06.307Z,72.47
2019-04-05T22:28:49.139Z,71.53
2019-04-05T22:31:34.072Z,72.75
2019-04-05T22:34:18.848Z,75.67
2019-04-05T22:36:59.138Z,69.35
2019-04-05T22:39:42.418Z,72.35
2019-04-05T22:42:26.729Z,73.40
2019-04-05T22:45:19.675Z,77.15
2019-04-05T22:48:07.938Z,79.03
2019-04-05T22:50:52.054Z,76.53
2019-04-05T22:53:33.586Z,74.58
2019-04-05T22:56:08.209Z,73.75
2019-04-05T22:58:58.806Z,75.00
2019-04-05T23:01:47.214Z,74.42
2019-04-05T23:04:32.690Z,76.47
2019-04-05T23:07:13.384Z,72.25
2019-04-05T23:09:56.613Z,75.32
2019-04-05T23:12:39.993Z,76.05
2019-04-05T23:15:20.992Z,77.50
2019-04-05T23:18:07.410Z,89.83
2019-04-05T23:20:55.322Z,78.35
2019-04-05T23:23:38.397Z,73.78
2019-04-05T23:26:16.171Z,73.15
2019-04-05T23:28:56.769Z,79.32
2019-04-05T23:31:28.525Z,79.82
2019-04-05T23:34:00.866Z,75.47
2019-04-05T23:36:37.176Z,77.20
2019-04-05T23:39:19.157Z,80.10
2019-04-05T23:41:57.505Z,74.75
2019-04-05T23:44:34.214Z,80.65
2019-04-05T23:47:09.871Z,67.37
2019-04-05T23:49:48.142Z,73.45
2019-04-05T23:52:23.113Z,70.08
2019-04-05T23:55:01.755Z,67.55
2019-04-05T23:57:40.250Z,67.35
